createdAt,value
2022-08-17T00:02:25.350Z,21.60
2022-08-17T00:07:28.863Z,21.50
2022-08-17T00:12:43.072Z,21.40
2022-08-17T00:17:48.347Z,21.50
2022-08-17T00:22:50.372Z,21.40
2022-08-17T00:27:52.275Z,21.40
2022-08-17T00:33:13.920Z,21.40
2022-08-17T00:38:18.369Z,21.30
2022-08-17T00:43:27.433Z,21.30
2022-08-17T00:48:30.986Z,21.40
2022-08-17T00:53:36.370Z,21.40
2022-08-17T00:58:38.929Z,21.30
2022-08-17T01:03:41.787Z,21.30
2022-08-17T01:08:43.632Z,21.20
2022-08-17T01:13:45.568Z,21.20
2022-08-17T01:18:52.254Z,21.20
2022-08-17T01:23:54.130Z,21.10
2022-08-17T01:28:56.508Z,21.00
2022-08-17T01:34:02.011Z,21.00
2022-08-17T01:39:07.694Z,21.00
2022-08-17T01:44:12.474Z,21.00
2022-08-17T01:49:14.193Z,20.90
2022-08-17T01:54:18.622Z,20.90
2022-08-17T01:59:20.771Z,20.90
2022-08-17T02:04:22.495Z,20.90
2022-08-17T02:09:26.370Z,20.90
2022-08-17T02:14:31.763Z,20.90
2022-08-17T02:19:33.637Z,20.80
2022-08-17T02:24:59.360Z,20.80
2022-08-17T02:29:59.443Z,20.70
2022-08-17T02:35:01.667Z,20.70
2022-08-17T02:40:04.347Z,20.70
2022-08-17T02:45:13.340Z,20.80
2022-08-17T02:50:17.783Z,20.80
2022-08-17T02:55:25.868Z,20.70
2022-08-17T03:00:33.997Z,20.60
2022-08-17T03:05:38.026Z,20.60
2022-08-17T03:10:39.778Z,20.60
2022-08-17T03:15:45.100Z,20.50
2022-08-17T03:20:46.971Z,20.60
2022-08-17T03:25:48.697Z,20.60
2022-08-17T03:30:55.022Z,20.60
2022-08-17T03:35:56.837Z,20.40
2022-08-17T03:40:59.930Z,20.50
2022-08-17T03:46:28.660Z,20.60
2022-08-17T03:51:54.990Z,20.50
2022-08-17T03:57:09.132Z,20.50
2022-08-17T04:02:19.730Z,20.40
2022-08-17T04:07:24.918Z,20.40
2022-08-17T04:12:30.842Z,20.50
2022-08-17T04:17:32.884Z,20.70
2022-08-17T04:22:34.567Z,20.90
2022-08-17T04:27:36.724Z,21.00
2022-08-17T04:33:05.321Z,21.20
2022-08-17T04:38:13.297Z,21.40
2022-08-17T04:43:21.330Z,21.50
2022-08-17T04:48:33.388Z,21.60
2022-08-17T04:53:39.864Z,21.70
2022-08-17T04:58:42.436Z,21.70
2022-08-17T05:03:44.693Z,21.70
2022-08-17T05:08:46.462Z,21.70
2022-08-17T05:13:50.294Z,21.80
2022-08-17T05:18:52.611Z,21.90
2022-08-17T05:23:58.344Z,22.00
2022-08-17T05:29:02.739Z,22.00
2022-08-17T05:34:04.858Z,22.00
2022-08-17T05:39:06.644Z,22.10
2022-08-17T05:44:08.336Z,22.20
2022-08-17T05:49:21.818Z,22.40
2022-08-17T05:54:56.594Z,22.70
2022-08-17T06:00:14.239Z,22.80
2022-08-17T06:05:24.859Z,22.90
2022-08-17T06:10:50.507Z,22.90
2022-08-17T06:16:31.145Z,22.90
2022-08-17T06:21:41.016Z,22.90
2022-08-17T06:26:45.453Z,23.00
2022-08-17T06:31:47.215Z,23.00
2022-08-17T06:37:00.992Z,23.10
2022-08-17T06:43:02.111Z,23.30
2022-08-17T06:47:53.150Z,23.30
2022-08-17T06:53:13.377Z,23.50
2022-08-17T06:58:21.133Z,23.70
2022-08-17T07:03:59.068Z,23.90
2022-08-17T07:09:14.282Z,24.10
2022-08-17T07:14:36.870Z,24.30
2022-08-17T07:19:45.321Z,24.60
2022-08-17T07:24:58.429Z,24.80
2022-08-17T07:30:17.796Z,24.80
2022-08-17T07:35:40.877Z,24.40
2022-08-17T07:41:05.915Z,24.70
2022-08-17T07:46:47.721Z,25.10
2022-08-17T07:51:50.444Z,25.30
2022-08-17T07:56:58.484Z,25.30
2022-08-17T08:02:12.311Z,25.30
2022-08-17T08:07:16.413Z,25.40
2022-08-17T08:12:33.989Z,25.50
2022-08-17T08:17:54.035Z,25.60
2022-08-17T08:23:33.598Z,25.60
2022-08-17T08:28:57.540Z,25.60
2022-08-17T08:36:57.109Z,25.70
2022-08-17T08:42:17.523Z,26.00
2022-08-17T08:47:44.435Z,26.10
2022-08-17T08:53:14.237Z,26.30
2022-08-17T08:58:32.050Z,26.40
2022-08-17T09:04:24.559Z,26.60
2022-08-17T09:09:36.765Z,26.90
2022-08-17T09:14:46.940Z,27.30
2022-08-17T09:19:56.065Z,27.30
2022-08-17T09:25:29.030Z,27.40
2022-08-17T09:30:47.590Z,27.30
2022-08-17T09:35:58.773Z,27.40
2022-08-17T09:41:14.480Z,27.50
2022-08-17T09:46:28.603Z,27.70
2022-08-17T09:51:48.640Z,27.80
2022-08-17T09:57:29.082Z,28.10
2022-08-17T10:02:40.448Z,28.30
2022-08-17T10:08:01.889Z,28.40
2022-08-17T10:13:20.203Z,28.50
2022-08-17T10:18:39.217Z,28.50
2022-08-17T10:24:01.729Z,28.50
2022-08-17T10:29:48.802Z,28.70
2022-08-17T10:35:25.639Z,28.80
2022-08-17T10:40:53.277Z,28.80
2022-08-17T10:46:31.818Z,29.00
2022-08-17T10:51:39.101Z,29.10
2022-08-17T10:56:47.062Z,29.20
2022-08-17T11:02:03.981Z,29.10
2022-08-17T11:07:43.794Z,29.10
2022-08-17T11:13:08.843Z,29.60
2022-08-17T11:18:44.437Z,29.60
2022-08-17T11:23:58.125Z,29.60
2022-08-17T11:29:05.136Z,29.70
2022-08-17T11:34:26.785Z,29.80
2022-08-17T11:40:05.885Z,29.90
2022-08-17T11:45:32.139Z,30.00
2022-08-17T11:51:34.483Z,29.90
2022-08-17T11:56:44.380Z,30.00
2022-08-17T12:01:55.744Z,30.30
2022-08-17T12:07:20.583Z,30.70
2022-08-17T12:12:35.533Z,31.00
2022-08-17T12:17:40.972Z,31.20
2022-08-17T12:23:04.784Z,31.30
2022-08-17T12:28:25.726Z,31.10
2022-08-17T12:33:28.881Z,31.20
2022-08-17T12:38:36.102Z,31.50
2022-08-17T12:43:37.908Z,31.60
2022-08-17T12:48:39.711Z,31.90
2022-08-17T12:54:02.355Z,32.30
2022-08-17T12:59:04.080Z,32.20
2022-08-17T13:04:06.583Z,32.60
2022-08-17T13:09:15.141Z,33.00
2022-08-17T13:14:18.609Z,33.30
2022-08-17T13:19:39.820Z,33.50
2022-08-17T13:24:53.143Z,33.20
2022-08-17T13:30:02.355Z,32.80
2022-08-17T13:35:39.604Z,33.20
2022-08-17T13:40:52.227Z,33.70
2022-08-17T13:46:06.663Z,33.70
2022-08-17T13:51:36.170Z,33.50
2022-08-17T13:56:52.825Z,33.10
2022-08-17T14:01:54.649Z,32.90
2022-08-17T14:06:58.793Z,32.90
2022-08-17T14:12:02.234Z,33.50
2022-08-17T14:17:04.979Z,34.70
2022-08-17T14:22:14.876Z,35.20
2022-08-17T14:27:17.925Z,35.70
2022-08-17T14:32:28.749Z,35.80
2022-08-17T14:37:31.194Z,36.20
2022-08-17T14:42:35.421Z,35.60
2022-08-17T14:47:39.055Z,36.10
2022-08-17T14:52:41.519Z,34.90
2022-08-17T14:57:43.239Z,35.40
2022-08-17T15:02:50.899Z,35.20
2022-08-17T15:07:53.539Z,36.10
2022-08-17T15:12:56.217Z,36.10
2022-08-17T15:17:58.695Z,36.70
2022-08-17T15:23:00.542Z,36.30
2022-08-17T15:28:02.349Z,36.60
2022-08-17T15:33:04.376Z,36.50
2022-08-17T15:38:11.721Z,36.20
2022-08-17T15:43:23.337Z,36.40
2022-08-17T15:48:41.384Z,36.90
2022-08-17T15:53:45.436Z,37.10
2022-08-17T15:58:48.390Z,36.60
2022-08-17T16:04:05.052Z,35.40
2022-08-17T16:09:09.051Z,36.00
2022-08-17T16:14:10.722Z,36.60
2022-08-17T16:19:16.196Z,36.50
2022-08-17T16:24:17.916Z,35.50
2022-08-17T16:29:19.613Z,35.20
2022-08-17T16:34:21.420Z,35.90
2022-08-17T16:39:28.864Z,36.50
2022-08-17T16:44:32.115Z,36.80
2022-08-17T16:49:36.954Z,36.00
2022-08-17T16:54:43.450Z,35.10
2022-08-17T16:59:51.317Z,34.50
2022-08-17T17:05:30.821Z,34.30
2022-08-17T17:10:42.084Z,34.30
2022-08-17T17:15:55.129Z,34.00
2022-08-17T17:20:57.723Z,33.60
2022-08-17T17:26:10.936Z,33.40
2022-08-17T17:31:23.777Z,33.40
2022-08-17T17:36:43.193Z,33.70
2022-08-17T17:42:07.496Z,33.70
2022-08-17T17:47:10.036Z,33.40
2022-08-17T17:52:23.157Z,32.90
2022-08-17T17:57:24.798Z,32.50
2022-08-17T18:02:53.159Z,32.20
2022-08-17T18:08:18.159Z,31.90
2022-08-17T18:13:32.359Z,31.60
2022-08-17T18:18:39.675Z,31.40
2022-08-17T18:24:08.809Z,31.10
2022-08-17T18:29:30.338Z,30.70
2022-08-17T18:34:48.771Z,30.30
2022-08-17T18:39:50.712Z,30.00
2022-08-17T18:44:55.342Z,29.80
2022-08-17T18:50:19.042Z,29.70
2022-08-17T18:55:28.932Z,29.60
2022-08-17T19:00:30.603Z,29.50
2022-08-17T19:05:39.539Z,29.40
2022-08-17T19:10:46.261Z,29.30
2022-08-17T19:16:11.780Z,29.10
2022-08-17T19:21:26.413Z,29.10
2022-08-17T19:26:54.533Z,29.00
2022-08-17T19:31:59.378Z,28.80
2022-08-17T19:37:20.963Z,28.80
2022-08-17T19:42:47.303Z,28.70
2022-08-17T19:48:02.793Z,28.50
2022-08-17T19:53:47.850Z,28.20
2022-08-17T19:59:13.815Z,28.10
2022-08-17T20:04:43.058Z,27.80
2022-08-17T20:09:51.834Z,27.60
2022-08-17T20:14:58.377Z,27.40
2022-08-17T20:20:19.645Z,27.30
2022-08-17T20:25:32.645Z,27.10
2022-08-17T20:30:39.306Z,26.90
2022-08-17T20:36:19.576Z,26.80
2022-08-17T20:41:27.554Z,26.60
2022-08-17T20:46:38.494Z,26.50
2022-08-17T20:52:00.758Z,26.40
2022-08-17T20:57:13.873Z,26.40
2022-08-17T21:02:22.134Z,26.20
2022-08-17T21:07:33.000Z,26.30
2022-08-17T21:12:58.376Z,26.20
2022-08-17T21:18:15.527Z,26.00
2022-08-17T21:23:40.330Z,25.90
2022-08-17T21:29:00.861Z,25.80
2022-08-17T21:34:15.326Z,25.70
2022-08-17T21:39:24.102Z,25.50
2022-08-17T21:44:36.553Z,25.40
2022-08-17T21:49:38.314Z,25.20
2022-08-17T21:54:47.259Z,25.10
2022-08-17T21:59:56.236Z,25.10
2022-08-17T22:04:59.593Z,25.10
2022-08-17T22:10:01.508Z,25.00
2022-08-17T22:15:07.281Z,24.80
2022-08-17T22:20:14.942Z,24.70
2022-08-17T22:25:22.034Z,24.60
2022-08-17T22:30:38.876Z,24.50
2022-08-17T22:35:43.231Z,24.50
2022-08-17T22:40:57.462Z,24.40
2022-08-17T22:46:00.231Z,24.40
2022-08-17T22:51:12.859Z,24.30
2022-08-17T22:56:41.763Z,24.30
2022-08-17T23:01:46.160Z,24.20
2022-08-17T23:06:47.856Z,24.20
2022-08-17T23:11:56.447Z,24.20
2022-08-17T23:17:01.857Z,24.20
2022-08-17T23:22:06.174Z,24.20
2022-08-17T23:27:07.942Z,24.00
2022-08-17T23:32:14.741Z,24.00
2022-08-17T23:37:20.164Z,23.90
2022-08-17T23:42:21.869Z,23.90
2022-08-17T23:47:24.549Z,23.80
2022-08-17T23:52:27.961Z,23.70
2022-08-17T23:57:33.503Z,23.60
